createdAt,value
2019-06-08T00:00:01.543Z,70.04
2019-06-08T00:05:01.722Z,70.08
2019-06-08T00:10:01.834Z,69.31
2019-06-08T00:15:01.935Z,68.82
2019-06-08T00:20:02.093Z,68.89
2019-06-08T00:25:01.335Z,67.51
2019-06-08T00:30:01.576Z,67.27
2019-06-08T00:35:01.757Z,67.66
2019-06-08T00:40:01.996Z,68.72
2019-06-08T00:45:01.215Z,67.56
2019-06-08T00:50:01.329Z,68.12
2019-06-08T00:55:01.464Z,67.74
2019-06-08T01:00:09.748Z,67.82
2019-06-08T01:05:01.248Z,67.51
2019-06-08T01:10:01.375Z,68.06
2019-06-08T01:15:01.541Z,69.22
2019-06-08T01:20:01.841Z,69.87
2019-06-08T01:25:02.005Z,70.31
2019-06-08T01:30:01.178Z,69.89
2019-06-08T01:35:01.277Z,71.14
2019-06-08T01:40:01.403Z,70.33
2019-06-08T01:45:01.697Z,69.89
2019-06-08T01:50:01.840Z,70.08
2019-06-08T01:55:01.962Z,70.24
2019-06-08T02:00:28.675Z,70.07
2019-06-08T02:05:01.194Z,69.89
2019-06-08T02:10:01.324Z,70.02
2019-06-08T02:15:01.458Z,69.48
2019-06-08T02:20:01.955Z,67.89
2019-06-08T02:25:02.070Z,67.43
2019-06-08T02:30:01.173Z,66.45
2019-06-08T02:35:01.292Z,67.89
2019-06-08T02:40:01.151Z,68.29
2019-06-08T02:45:01.261Z,68.86
2019-06-08T02:50:01.362Z,68.31
2019-06-08T02:55:01.499Z,66.12
2019-06-08T03:00:01.628Z,68.15
2019-06-08T03:05:01.737Z,68.67
2019-06-08T03:10:01.857Z,67.96
2019-06-08T03:15:02.037Z,68.13
2019-06-08T03:20:01.159Z,67.93
2019-06-08T03:25:01.282Z,69.57
2019-06-08T03:30:15.058Z,68.95
2019-06-08T03:35:01.977Z,69.69
2019-06-08T03:40:02.105Z,68.91
2019-06-08T03:45:01.235Z,69.82
2019-06-08T03:50:01.332Z,68.98
2019-06-08T03:55:01.483Z,68.48
2019-06-08T04:00:01.671Z,68.59
2019-06-08T04:05:01.818Z,69.18
2019-06-08T04:10:01.980Z,69.55
2019-06-08T04:15:02.131Z,68.87
2019-06-08T04:20:10.121Z,68.95
2019-06-08T04:25:02.003Z,69.06
2019-06-08T04:30:01.145Z,68.02
2019-06-08T04:35:01.432Z,67.78
2019-06-08T04:40:01.453Z,70.34
2019-06-08T04:45:01.600Z,68.21
2019-06-08T04:50:20.252Z,70.22
2019-06-08T04:55:01.517Z,68.22
2019-06-08T05:00:11.171Z,67.8
2019-06-08T05:05:01.784Z,66.28
2019-06-08T05:10:01.913Z,64.45
2019-06-08T05:15:02.079Z,65.13
2019-06-08T05:20:01.211Z,65.2
2019-06-08T05:25:01.336Z,65.94
2019-06-08T05:30:08.140Z,65.56
2019-06-08T05:35:02.056Z,66.53
2019-06-08T05:40:01.179Z,68.17
2019-06-08T05:45:01.311Z,68.05
2019-06-08T05:50:01.404Z,66.23
2019-06-08T05:55:01.553Z,66.02
2019-06-08T06:00:08.388Z,67.59
2019-06-08T06:05:02.055Z,68.19
2019-06-08T06:10:01.192Z,66.18
2019-06-08T06:15:01.346Z,62.55
2019-06-08T06:20:01.544Z,63
2019-06-08T06:25:01.690Z,64.93
2019-06-08T06:30:01.991Z,65.69
2019-06-08T06:35:01.275Z,65.21
2019-06-08T06:40:01.400Z,65.73
2019-06-08T06:45:01.554Z,66.38
2019-06-08T06:50:01.670Z,66.92
2019-06-08T06:55:01.840Z,66.1
2019-06-08T07:00:01.985Z,65.3
2019-06-08T07:05:01.096Z,64.67
2019-06-08T07:10:01.184Z,62.22
2019-06-08T07:15:01.328Z,60.16
2019-06-08T07:20:01.433Z,59.76
2019-06-08T07:25:01.558Z,60.69
2019-06-08T07:30:01.703Z,62.82
2019-06-08T07:35:01.852Z,58.71
2019-06-08T07:40:01.993Z,56.61
2019-06-08T07:45:01.121Z,57.46
2019-06-08T07:50:04.517Z,57.88
2019-06-08T07:55:01.990Z,57.71
2019-06-08T08:00:08.837Z,58.72
2019-06-08T08:05:01.880Z,58.01
2019-06-08T08:10:02.077Z,57.09
2019-06-08T08:15:01.273Z,56.63
2019-06-08T08:20:01.365Z,55.48
2019-06-08T08:25:04.592Z,55.33
2019-06-08T08:30:02.126Z,56.32
2019-06-08T08:35:03.000Z,56.29
2019-06-08T08:40:01.527Z,57.39
2019-06-08T08:45:05.147Z,55.5
2019-06-08T08:50:02.200Z,56.15
2019-06-08T08:55:02.224Z,55.83
2019-06-08T09:00:04.797Z,59.09
2019-06-08T09:05:03.399Z,59.84
2019-06-08T09:10:03.609Z,61.69
2019-06-08T09:15:03.537Z,62.9
2019-06-08T09:20:03.665Z,62.86
2019-06-08T09:25:04.309Z,59.79
2019-06-08T09:30:04.389Z,59.07
2019-06-08T09:35:04.632Z,57.34
2019-06-08T09:40:03.520Z,57.47
2019-06-08T09:45:04.241Z,57.1
2019-06-08T09:50:03.813Z,55.28
2019-06-08T09:55:03.708Z,57.5
2019-06-08T10:00:08.345Z,55.43
2019-06-08T10:05:04.038Z,55.45
2019-06-08T10:10:03.126Z,57.42
2019-06-08T10:15:02.844Z,57.08
2019-06-08T10:20:03.273Z,58.66
2019-06-08T10:25:04.509Z,60.62
2019-06-08T10:30:04.303Z,58.22
2019-06-08T10:35:03.625Z,59.78
2019-06-08T10:40:03.726Z,60.07
2019-06-08T10:45:05.173Z,58.37
2019-06-08T10:50:06.403Z,57.43
2019-06-08T10:55:03.355Z,57.98
2019-06-08T11:00:12.349Z,60.17
2019-06-08T11:05:04.351Z,58.45
2019-06-08T11:10:02.011Z,60.66
2019-06-08T11:15:03.148Z,57.14
2019-06-08T11:20:03.976Z,58.5
2019-06-08T11:25:02.490Z,59.53
2019-06-08T11:30:09.976Z,58.46
2019-06-08T11:35:02.064Z,57.54
2019-06-08T11:40:02.161Z,60.65
2019-06-08T11:45:02.288Z,57.27
2019-06-08T11:50:02.843Z,59.88
2019-06-08T11:55:02.581Z,58.21
2019-06-08T12:00:08.790Z,56.57
2019-06-08T12:05:01.762Z,55.8
2019-06-08T12:10:02.988Z,57.46
2019-06-08T12:15:01.230Z,57.49
2019-06-08T12:20:01.324Z,57.82
2019-06-08T12:25:01.454Z,54.77
2019-06-08T12:30:08.153Z,56
2019-06-08T12:35:01.108Z,57.42
2019-06-08T12:40:01.543Z,59.33
2019-06-08T12:45:01.711Z,56.05
2019-06-08T12:50:01.812Z,55.6
2019-06-08T12:55:06.920Z,55.12
2019-06-08T13:00:02.032Z,58.09
2019-06-08T13:05:01.135Z,56.63
2019-06-08T13:10:01.258Z,56.78
2019-06-08T13:15:01.408Z,54.54
2019-06-08T13:20:01.513Z,57.57
2019-06-08T13:25:15.665Z,57.54
2019-06-08T13:30:01.755Z,58.34
2019-06-08T13:35:01.884Z,55.8
2019-06-08T13:40:02.041Z,57.74
2019-06-08T13:45:01.244Z,56.08
2019-06-08T13:50:01.350Z,57.77
2019-06-08T13:55:01.505Z,58.42
2019-06-08T14:00:01.629Z,56.8
2019-06-08T14:05:01.755Z,57.12
2019-06-08T14:10:01.854Z,57.71
2019-06-08T14:15:02.096Z,53.89
2019-06-08T14:20:01.193Z,56.14
2019-06-08T14:25:01.317Z,53.78
2019-06-08T14:30:01.476Z,56.08
2019-06-08T14:35:02.969Z,55.9
2019-06-08T14:40:01.277Z,57.68
2019-06-08T14:45:01.404Z,58.54
2019-06-08T14:50:02.083Z,57.63
2019-06-08T14:55:01.345Z,57.54
2019-06-08T15:00:08.398Z,60.02
2019-06-08T15:05:01.874Z,57.14
2019-06-08T15:10:02.025Z,56.64
2019-06-08T15:15:01.188Z,56.87
2019-06-08T15:20:01.283Z,55.6
2019-06-08T15:25:01.423Z,57.1
2019-06-08T15:30:01.514Z,55.14
2019-06-08T15:35:01.639Z,56.62
2019-06-08T15:40:01.766Z,56.44
2019-06-08T15:45:01.900Z,56.18
2019-06-08T15:50:01.990Z,57.53
2019-06-08T15:55:01.687Z,55.89
2019-06-08T16:00:01.909Z,60.23
2019-06-08T16:05:02.019Z,57.12
2019-06-08T16:10:01.143Z,57.63
2019-06-08T16:15:01.327Z,59.39
2019-06-08T16:20:01.435Z,61.75
2019-06-08T16:25:01.560Z,58.58
2019-06-08T16:30:08.733Z,57.71
2019-06-08T16:35:01.821Z,58.85
2019-06-08T16:40:01.962Z,57.54
2019-06-08T16:45:02.162Z,58.67
2019-06-08T16:50:01.282Z,57.67
2019-06-08T16:55:01.431Z,59.43
2019-06-08T17:00:29.469Z,59.77
2019-06-08T17:05:02.054Z,60.05
2019-06-08T17:10:01.262Z,60
2019-06-08T17:15:01.405Z,59.54
2019-06-08T17:20:04.466Z,60.02
2019-06-08T17:25:02.117Z,60.24
2019-06-08T17:30:08.064Z,60.7
2019-06-08T17:35:01.849Z,61.24
2019-06-08T17:40:01.979Z,62.84
2019-06-08T17:45:02.106Z,64.6
2019-06-08T17:50:01.230Z,72.32
2019-06-08T17:55:01.396Z,75.98
2019-06-08T18:00:01.534Z,75.55
2019-06-08T18:05:01.688Z,74.01
2019-06-08T18:10:01.811Z,73.81
2019-06-08T18:15:01.961Z,72.98
2019-06-08T18:20:02.056Z,74.21
2019-06-08T18:25:01.149Z,72.91
2019-06-08T18:30:08.007Z,72.18
2019-06-08T18:35:01.121Z,70.72
2019-06-08T18:40:01.242Z,71.28
2019-06-08T18:45:01.384Z,69.56
2019-06-08T18:50:01.477Z,69.28
2019-06-08T18:55:01.624Z,67.96
2019-06-08T19:00:08.137Z,67.23
2019-06-08T19:05:01.138Z,68.35
2019-06-08T19:10:01.243Z,69.19
2019-06-08T19:15:01.359Z,69.23
2019-06-08T19:20:01.451Z,68.38
2019-06-08T19:25:01.544Z,68.21
2019-06-08T19:30:01.671Z,69.67
2019-06-08T19:35:01.796Z,69.18
2019-06-08T19:40:02.016Z,70.68
2019-06-08T19:45:05.236Z,70.18
2019-06-08T19:50:01.336Z,70.92
2019-06-08T19:55:01.483Z,71.37
2019-06-08T20:00:01.611Z,72.11
2019-06-08T20:05:01.759Z,72.56
2019-06-08T20:10:01.993Z,71.79
2019-06-08T20:15:01.423Z,71.85
2019-06-08T20:20:01.533Z,71.98
2019-06-08T20:25:01.619Z,72.26
2019-06-08T20:30:08.870Z,72.13
2019-06-08T20:35:01.149Z,72.39
2019-06-08T20:40:10.249Z,73.07
2019-06-08T20:45:01.968Z,73.72
2019-06-08T20:50:02.083Z,74.74
2019-06-08T20:55:01.206Z,75.2
2019-06-08T21:00:08.183Z,76.2
2019-06-08T21:05:01.145Z,76.9
2019-06-08T21:10:01.282Z,76.85
2019-06-08T21:15:01.377Z,77.35
2019-06-08T21:20:01.490Z,77.64
2019-06-08T21:25:01.595Z,78.36
2019-06-08T21:30:07.001Z,78.93
2019-06-08T21:35:02.056Z,79.38
2019-06-08T21:40:03.846Z,79.93
2019-06-08T21:45:02.919Z,80.22
2019-06-08T21:50:01.601Z,80.2
2019-06-08T21:55:01.734Z,80.22
2019-06-08T22:00:21.907Z,81.25
2019-06-08T22:05:04.695Z,81.53
2019-06-08T22:10:02.923Z,82.73
2019-06-08T22:15:03.134Z,83.22
2019-06-08T22:20:01.358Z,83.67
2019-06-08T22:25:01.479Z,83.74
2019-06-08T22:30:09.763Z,83.92
2019-06-08T22:35:01.820Z,83.98
2019-06-08T22:40:01.457Z,84.32
2019-06-08T22:45:02.588Z,84.68
2019-06-08T22:50:02.539Z,84.8
2019-06-08T22:55:05.210Z,84.69
2019-06-08T23:00:08.103Z,84.4
2019-06-08T23:05:03.919Z,84.54
2019-06-08T23:10:04.164Z,84.54
2019-06-08T23:15:02.339Z,83.29
2019-06-08T23:20:01.985Z,83.44
2019-06-08T23:25:02.705Z,83.12
2019-06-08T23:30:02.223Z,82.76
2019-06-08T23:35:02.872Z,82.78
2019-06-08T23:40:02.593Z,82.92
2019-06-08T23:45:02.295Z,83.44
2019-06-08T23:50:02.559Z,83.38
2019-06-08T23:55:02.603Z,83.47
